createdAt,value
2017-07-06T00:00:54.550Z,18.28
2017-07-06T00:03:25.007Z,18.28
2017-07-06T00:05:54.473Z,18.31
2017-07-06T00:08:23.898Z,18.28
2017-07-06T00:10:53.363Z,18.25
2017-07-06T00:13:22.814Z,18.20
2017-07-06T00:15:52.278Z,18.20
2017-07-06T00:18:21.757Z,18.17
2017-07-06T00:20:51.206Z,18.15
2017-07-06T00:23:20.664Z,18.16
2017-07-06T00:25:50.101Z,18.18
2017-07-06T00:28:19.554Z,18.13
2017-07-06T00:30:49.027Z,18.12
2017-07-06T00:33:18.464Z,18.05
2017-07-06T00:35:47.922Z,18.00
2017-07-06T00:38:17.370Z,17.99
2017-07-06T00:40:46.822Z,17.92
2017-07-06T00:43:16.290Z,17.93
2017-07-06T00:45:45.730Z,17.88
2017-07-06T00:48:15.171Z,17.83
2017-07-06T00:50:44.628Z,17.81
2017-07-06T00:53:14.075Z,17.79
2017-07-06T00:55:43.547Z,17.76
2017-07-06T00:58:12.675Z,17.75
2017-07-06T01:00:42.126Z,17.69
2017-07-06T01:03:11.574Z,17.68
2017-07-06T01:05:41.022Z,17.70
2017-07-06T01:08:10.480Z,17.71
2017-07-06T01:10:39.922Z,17.73
2017-07-06T01:13:09.374Z,17.72
2017-07-06T01:15:38.831Z,17.73
2017-07-06T01:18:08.273Z,17.75
2017-07-06T01:20:37.713Z,17.86
2017-07-06T01:23:07.160Z,17.91
2017-07-06T01:25:36.287Z,17.90
2017-07-06T01:28:05.742Z,17.97
2017-07-06T01:30:35.193Z,18.16
2017-07-06T01:33:04.642Z,18.54
2017-07-06T01:35:34.108Z,18.97
2017-07-06T01:38:03.567Z,19.10
2017-07-06T01:40:33.022Z,19.17
2017-07-06T01:43:02.483Z,19.18
2017-07-06T01:45:31.926Z,19.13
2017-07-06T01:48:02.104Z,19.13
2017-07-06T01:50:31.543Z,19.10
2017-07-06T01:53:00.993Z,19.17
2017-07-06T01:55:30.094Z,19.25
2017-07-06T01:57:59.198Z,19.28
2017-07-06T02:00:28.654Z,19.20
2017-07-06T02:02:58.106Z,19.13
2017-07-06T02:05:27.548Z,19.01
2017-07-06T02:07:57.006Z,18.88
2017-07-06T02:10:26.469Z,18.84
2017-07-06T02:12:55.916Z,18.78
2017-07-06T02:15:25.540Z,18.67
2017-07-06T02:17:54.971Z,18.61
2017-07-06T02:20:24.476Z,18.54
2017-07-06T02:22:54.164Z,18.48
2017-07-06T02:25:23.620Z,18.44
2017-07-06T02:27:53.073Z,18.44
2017-07-06T02:30:22.563Z,18.42
2017-07-06T02:32:52.003Z,18.38
2017-07-06T02:35:21.494Z,18.36
2017-07-06T02:37:50.949Z,18.33
2017-07-06T02:40:20.493Z,18.31
2017-07-06T02:42:49.925Z,18.31
2017-07-06T02:45:19.466Z,18.27
2017-07-06T02:47:48.897Z,18.28
2017-07-06T02:50:18.381Z,18.26
2017-07-06T02:52:47.827Z,18.26
2017-07-06T02:55:17.373Z,18.25
2017-07-06T02:57:46.802Z,18.26
2017-07-06T03:00:16.296Z,18.27
2017-07-06T03:02:45.590Z,18.29
2017-07-06T03:05:15.062Z,18.31
2017-07-06T03:07:44.345Z,18.35
2017-07-06T03:10:13.826Z,18.37
2017-07-06T03:12:43.287Z,18.35
2017-07-06T03:15:12.777Z,18.35
2017-07-06T03:17:42.213Z,18.37
2017-07-06T03:20:11.727Z,18.45
2017-07-06T03:22:41.197Z,18.49
2017-07-06T03:25:10.682Z,18.45
2017-07-06T03:27:40.136Z,18.46
2017-07-06T03:30:09.136Z,18.45
2017-07-06T03:32:38.582Z,18.43
2017-07-06T03:35:08.134Z,18.44
2017-07-06T03:37:37.794Z,18.42
2017-07-06T03:40:07.292Z,18.44
2017-07-06T03:42:36.738Z,18.43
2017-07-06T03:45:06.166Z,18.49
2017-07-06T03:47:35.630Z,18.57
2017-07-06T03:50:05.106Z,18.58
2017-07-06T03:52:34.548Z,18.61
2017-07-06T03:55:04.052Z,18.67
2017-07-06T03:57:33.321Z,18.76
2017-07-06T04:00:03.026Z,18.73
2017-07-06T04:02:32.273Z,18.72
2017-07-06T04:05:01.781Z,18.72
2017-07-06T04:07:31.367Z,18.79
2017-07-06T04:10:00.798Z,18.85
2017-07-06T04:12:30.386Z,18.90
2017-07-06T04:14:59.840Z,18.97
2017-07-06T04:17:30.271Z,19.03
2017-07-06T04:19:59.560Z,19.06
2017-07-06T04:22:29.030Z,19.11
2017-07-06T04:24:58.481Z,19.16
2017-07-06T04:27:27.936Z,19.21
2017-07-06T04:29:57.386Z,19.29
2017-07-06T04:32:26.822Z,19.35
2017-07-06T04:34:56.281Z,19.40
2017-07-06T04:37:25.738Z,19.48
2017-07-06T04:39:55.235Z,19.56
2017-07-06T04:42:24.678Z,19.64
2017-07-06T04:44:54.305Z,19.71
2017-07-06T04:47:23.789Z,19.81
2017-07-06T04:49:53.254Z,19.90
2017-07-06T04:52:22.540Z,19.99
2017-07-06T04:54:51.977Z,20.06
2017-07-06T04:57:21.254Z,20.16
2017-07-06T04:59:51.473Z,20.25
2017-07-06T05:02:20.964Z,20.34
2017-07-06T05:04:50.818Z,20.44
2017-07-06T05:07:20.273Z,20.52
2017-07-06T05:09:49.719Z,20.58
2017-07-06T05:12:19.190Z,20.72
2017-07-06T05:14:48.642Z,20.74
2017-07-06T05:17:18.094Z,20.86
2017-07-06T05:19:47.585Z,20.92
2017-07-06T05:22:17.028Z,21.06
2017-07-06T05:24:46.485Z,21.14
2017-07-06T05:27:15.769Z,21.23
2017-07-06T05:29:45.219Z,21.32
2017-07-06T05:32:14.666Z,21.42
2017-07-06T05:34:44.234Z,21.51
2017-07-06T05:37:13.744Z,21.61
2017-07-06T05:39:43.201Z,21.66
2017-07-06T05:42:12.662Z,21.75
2017-07-06T05:44:42.115Z,21.90
2017-07-06T05:47:11.574Z,21.99
2017-07-06T05:49:40.831Z,22.02
2017-07-06T05:52:10.268Z,22.04
2017-07-06T05:54:39.729Z,22.10
2017-07-06T05:57:09.175Z,22.14
2017-07-06T05:59:38.628Z,22.21
2017-07-06T06:02:08.078Z,22.14
2017-07-06T06:04:37.515Z,22.15
2017-07-06T06:07:06.974Z,22.30
2017-07-06T06:09:36.427Z,22.40
2017-07-06T06:12:05.874Z,22.51
2017-07-06T06:14:35.328Z,22.51
2017-07-06T06:17:04.797Z,22.49
2017-07-06T06:19:34.054Z,22.60
2017-07-06T06:22:05.181Z,22.73
2017-07-06T06:24:34.281Z,22.79
2017-07-06T06:27:03.721Z,22.71
2017-07-06T06:29:33.169Z,22.76
2017-07-06T06:32:02.612Z,22.92
2017-07-06T06:34:32.053Z,22.89
2017-07-06T06:37:01.509Z,23.03
2017-07-06T06:39:30.967Z,23.15
2017-07-06T06:42:00.409Z,23.11
2017-07-06T06:44:29.862Z,23.15
2017-07-06T06:46:59.306Z,23.30
2017-07-06T06:49:28.576Z,23.46
2017-07-06T06:51:57.690Z,23.47
2017-07-06T06:54:27.146Z,23.67
2017-07-06T06:56:56.604Z,23.74
2017-07-06T06:59:26.043Z,23.93
2017-07-06T07:01:55.513Z,24.08
2017-07-06T07:04:24.954Z,24.17
2017-07-06T07:06:54.415Z,24.08
2017-07-06T07:09:23.874Z,24.23
2017-07-06T07:11:53.321Z,24.33
2017-07-06T07:14:22.868Z,24.41
2017-07-06T07:16:52.359Z,24.41
2017-07-06T07:19:21.818Z,24.51
2017-07-06T07:21:51.297Z,24.65
2017-07-06T07:24:20.745Z,24.66
2017-07-06T07:26:50.183Z,24.72
2017-07-06T07:29:19.627Z,24.59
2017-07-06T07:31:49.074Z,24.86
2017-07-06T07:34:18.523Z,25.15
2017-07-06T07:36:47.969Z,25.18
2017-07-06T07:39:17.409Z,25.01
2017-07-06T07:41:46.853Z,24.99
2017-07-06T07:44:16.315Z,25.11
2017-07-06T07:46:45.773Z,25.30
2017-07-06T07:49:15.219Z,25.50
2017-07-06T07:51:44.675Z,25.42
2017-07-06T07:54:14.126Z,25.30
2017-07-06T07:56:43.575Z,25.28
2017-07-06T07:59:13.041Z,25.34
2017-07-06T08:01:42.486Z,25.57
2017-07-06T08:04:11.919Z,25.41
2017-07-06T08:06:41.372Z,25.47
2017-07-06T08:09:10.812Z,25.61
2017-07-06T08:11:40.331Z,25.76
2017-07-06T08:14:09.796Z,25.97
2017-07-06T08:16:39.237Z,26.20
2017-07-06T08:19:08.677Z,26.20
2017-07-06T08:21:38.117Z,26.28
2017-07-06T08:24:07.585Z,26.49
2017-07-06T08:26:37.042Z,26.35
2017-07-06T08:29:06.485Z,26.49
2017-07-06T08:31:35.930Z,26.86
2017-07-06T08:34:05.395Z,26.86
2017-07-06T08:36:34.849Z,27.19
2017-07-06T08:39:03.529Z,27.49
2017-07-06T08:41:32.965Z,27.31
2017-07-06T08:44:02.423Z,27.13
2017-07-06T08:46:31.879Z,27.37
2017-07-06T08:49:01.321Z,27.43
2017-07-06T08:51:30.770Z,27.66
2017-07-06T08:54:00.225Z,27.72
2017-07-06T08:56:29.674Z,28.02
2017-07-06T08:58:59.124Z,27.96
2017-07-06T09:01:28.578Z,27.93
2017-07-06T09:03:58.018Z,27.96
2017-07-06T09:06:27.474Z,28.44
2017-07-06T09:08:56.918Z,28.65
2017-07-06T09:11:26.357Z,28.53
2017-07-06T09:13:55.827Z,28.14
2017-07-06T09:16:25.262Z,28.40
2017-07-06T09:18:55.980Z,28.73
2017-07-06T09:21:25.418Z,28.92
2017-07-06T09:23:54.869Z,28.93
2017-07-06T09:26:24.330Z,28.96
2017-07-06T09:28:53.774Z,29.32
2017-07-06T09:31:23.233Z,29.61
2017-07-06T09:33:52.704Z,29.83
2017-07-06T09:36:22.152Z,29.77
2017-07-06T09:38:51.595Z,29.84
2017-07-06T09:41:21.058Z,30.07
2017-07-06T09:43:50.507Z,29.94
2017-07-06T09:46:20.006Z,30.18
2017-07-06T09:48:49.463Z,30.57
2017-07-06T09:51:18.918Z,30.69
2017-07-06T09:53:48.369Z,30.86
2017-07-06T09:56:17.810Z,31.00
2017-07-06T09:58:47.102Z,30.56
2017-07-06T10:01:16.542Z,30.54
2017-07-06T10:03:46.010Z,30.71
2017-07-06T10:06:15.465Z,30.70
2017-07-06T10:08:44.923Z,30.82
2017-07-06T10:11:14.383Z,30.61
2017-07-06T10:13:43.853Z,30.93
2017-07-06T10:16:13.550Z,31.44
2017-07-06T10:18:43.015Z,31.72
2017-07-06T10:21:12.450Z,32.07
2017-07-06T10:23:41.905Z,31.77
2017-07-06T10:26:11.362Z,31.58
2017-07-06T10:28:40.837Z,31.27
2017-07-06T10:31:10.360Z,31.62
2017-07-06T10:33:40.053Z,32.02
2017-07-06T10:36:09.501Z,31.43
2017-07-06T10:38:38.976Z,31.77
2017-07-06T10:41:08.234Z,31.55
2017-07-06T10:43:37.686Z,31.52
2017-07-06T10:46:07.138Z,31.66
2017-07-06T10:48:36.580Z,31.79
2017-07-06T10:51:06.012Z,31.91
2017-07-06T10:53:35.457Z,31.92
2017-07-06T10:56:04.917Z,31.58
2017-07-06T10:58:34.341Z,31.87
2017-07-06T11:01:03.798Z,31.68
2017-07-06T11:03:33.241Z,31.58
2017-07-06T11:06:03.565Z,31.80
2017-07-06T11:08:33.040Z,31.70
2017-07-06T11:11:02.473Z,31.83
2017-07-06T11:13:31.915Z,32.20
2017-07-06T11:16:01.364Z,32.15
2017-07-06T11:18:30.816Z,31.52
2017-07-06T11:21:00.254Z,31.91
2017-07-06T11:23:29.706Z,31.43
2017-07-06T11:25:59.157Z,31.19
2017-07-06T11:28:28.609Z,31.03
2017-07-06T11:30:58.064Z,31.24
2017-07-06T11:33:27.518Z,31.56
2017-07-06T11:35:56.963Z,31.61
2017-07-06T11:38:26.406Z,31.22
2017-07-06T11:40:55.849Z,31.45
2017-07-06T11:43:25.290Z,31.42
2017-07-06T11:45:54.744Z,31.34
2017-07-06T11:48:24.020Z,31.84
2017-07-06T11:50:53.466Z,31.41
2017-07-06T11:53:22.936Z,32.10
2017-07-06T11:55:52.375Z,32.00
2017-07-06T11:58:21.824Z,31.67
2017-07-06T12:00:51.276Z,31.70
2017-07-06T12:03:20.722Z,32.04
2017-07-06T12:05:50.183Z,32.49
2017-07-06T12:08:19.493Z,32.01
2017-07-06T12:10:48.940Z,31.60
2017-07-06T12:13:18.121Z,32.45
2017-07-06T12:15:47.568Z,32.80
2017-07-06T12:18:17.037Z,32.39
2017-07-06T12:20:46.313Z,32.64
2017-07-06T12:23:15.757Z,32.94
2017-07-06T12:25:45.217Z,33.13
2017-07-06T12:28:15.383Z,33.47
2017-07-06T12:30:44.944Z,33.27
2017-07-06T12:33:14.385Z,34.59
2017-07-06T12:35:43.849Z,35.58
2017-07-06T12:38:13.295Z,36.13
2017-07-06T12:40:42.893Z,36.16
2017-07-06T12:43:12.365Z,36.52
2017-07-06T12:45:41.902Z,36.87
2017-07-06T12:48:11.336Z,37.62
2017-07-06T12:50:40.788Z,38.01
2017-07-06T12:53:10.282Z,37.95
2017-07-06T12:55:39.725Z,38.24
2017-07-06T12:58:09.180Z,38.57
2017-07-06T13:00:38.451Z,37.89
2017-07-06T13:03:07.905Z,39.68
2017-07-06T13:05:37.377Z,38.58
2017-07-06T13:08:06.845Z,39.54
2017-07-06T13:10:36.542Z,39.27
2017-07-06T13:13:05.993Z,39.09
2017-07-06T13:15:35.429Z,39.34
2017-07-06T13:18:04.891Z,38.54
2017-07-06T13:20:34.333Z,39.52
2017-07-06T13:23:03.610Z,41.28
2017-07-06T13:25:33.053Z,40.21
2017-07-06T13:28:02.513Z,39.31
2017-07-06T13:30:31.963Z,40.85
2017-07-06T13:33:01.403Z,41.17
2017-07-06T13:35:30.856Z,41.16
2017-07-06T13:38:00.302Z,39.76
2017-07-06T13:40:29.394Z,38.98
2017-07-06T13:42:58.846Z,39.93
2017-07-06T13:45:28.316Z,39.22
2017-07-06T13:47:57.561Z,39.62
2017-07-06T13:50:26.826Z,41.69
2017-07-06T13:52:56.277Z,40.78
2017-07-06T13:55:25.358Z,40.12
2017-07-06T13:57:54.259Z,40.36
2017-07-06T14:00:23.710Z,39.29
2017-07-06T14:02:53.156Z,39.96
2017-07-06T14:05:22.601Z,41.19
2017-07-06T14:07:52.051Z,40.86
2017-07-06T14:10:21.502Z,39.50
2017-07-06T14:12:50.959Z,40.27
2017-07-06T14:15:20.390Z,41.31
2017-07-06T14:17:49.842Z,40.90
2017-07-06T14:20:19.298Z,41.85
2017-07-06T14:22:48.854Z,42.24
2017-07-06T14:25:18.298Z,41.91
2017-07-06T14:27:47.769Z,41.96
2017-07-06T14:30:17.227Z,40.34
2017-07-06T14:32:46.679Z,40.14
2017-07-06T14:35:16.135Z,40.81
2017-07-06T14:37:45.827Z,41.20
2017-07-06T14:40:15.262Z,41.87
2017-07-06T14:42:44.736Z,41.64
2017-07-06T14:45:14.179Z,41.15
2017-07-06T14:47:43.636Z,42.68
2017-07-06T14:50:13.094Z,42.48
2017-07-06T14:52:42.553Z,42.09
2017-07-06T14:55:12.005Z,42.81
2017-07-06T14:57:41.477Z,42.18
2017-07-06T15:00:10.936Z,41.33
2017-07-06T15:02:40.402Z,41.66
2017-07-06T15:05:09.849Z,41.13
2017-07-06T15:07:39.318Z,42.74
2017-07-06T15:10:08.901Z,41.75
2017-07-06T15:12:38.990Z,41.98
2017-07-06T15:15:08.442Z,40.98
2017-07-06T15:17:37.889Z,42.61
2017-07-06T15:20:07.377Z,42.73
2017-07-06T15:22:36.840Z,42.57
2017-07-06T15:25:06.281Z,43.35
2017-07-06T15:27:38.038Z,44.05
2017-07-06T15:30:07.465Z,45.09
2017-07-06T15:32:36.922Z,44.71
2017-07-06T15:35:06.384Z,44.91
2017-07-06T15:37:35.818Z,43.01
2017-07-06T15:40:05.205Z,42.85
2017-07-06T15:42:34.648Z,42.54
2017-07-06T15:45:04.096Z,41.83
2017-07-06T15:47:33.534Z,41.78
2017-07-06T15:50:03.006Z,41.96
2017-07-06T15:52:32.458Z,42.34
2017-07-06T15:55:01.927Z,42.68
2017-07-06T15:57:31.383Z,41.24
2017-07-06T16:00:00.650Z,40.19
2017-07-06T16:02:29.911Z,40.50
2017-07-06T16:04:59.369Z,40.89
2017-07-06T16:07:28.830Z,38.68
2017-07-06T16:09:58.279Z,39.48
2017-07-06T16:12:27.754Z,40.67
2017-07-06T16:14:57.248Z,41.82
2017-07-06T16:17:26.699Z,41.80
2017-07-06T16:19:56.153Z,40.60
2017-07-06T16:22:26.250Z,41.03
2017-07-06T16:24:55.713Z,40.26
2017-07-06T16:27:25.203Z,40.88
2017-07-06T16:29:54.815Z,41.37
2017-07-06T16:32:24.250Z,39.43
2017-07-06T16:34:53.701Z,39.74
2017-07-06T16:37:23.140Z,39.75
2017-07-06T16:39:52.458Z,39.43
2017-07-06T16:42:21.912Z,40.10
2017-07-06T16:44:51.383Z,40.80
2017-07-06T16:47:20.804Z,40.89
2017-07-06T16:49:50.285Z,40.52
2017-07-06T16:52:19.541Z,41.04
2017-07-06T16:54:48.992Z,40.29
2017-07-06T16:57:18.450Z,40.38
2017-07-06T16:59:47.933Z,40.62
2017-07-06T17:02:17.382Z,40.90
2017-07-06T17:04:46.869Z,40.32
2017-07-06T17:07:16.326Z,40.12
2017-07-06T17:09:45.781Z,38.86
2017-07-06T17:12:15.248Z,38.69
2017-07-06T17:14:44.738Z,39.08
2017-07-06T17:17:14.181Z,38.92
2017-07-06T17:19:43.641Z,38.91
2017-07-06T17:22:13.091Z,39.24
2017-07-06T17:24:42.525Z,39.61
2017-07-06T17:27:11.977Z,39.03
2017-07-06T17:29:41.433Z,39.13
2017-07-06T17:32:10.919Z,39.10
2017-07-06T17:34:40.373Z,39.76
2017-07-06T17:37:09.855Z,39.97
2017-07-06T17:39:39.306Z,40.01
2017-07-06T17:42:08.795Z,39.84
2017-07-06T17:44:38.300Z,40.00
2017-07-06T17:47:07.732Z,39.53
2017-07-06T17:49:37.307Z,39.35
2017-07-06T17:52:06.758Z,39.20
2017-07-06T17:54:36.228Z,39.14
2017-07-06T17:57:05.653Z,39.54
2017-07-06T17:59:35.098Z,38.99
2017-07-06T18:02:04.594Z,38.88
2017-07-06T18:04:34.051Z,38.83
2017-07-06T18:07:03.486Z,38.70
2017-07-06T18:09:32.974Z,38.50
2017-07-06T18:12:02.429Z,38.76
2017-07-06T18:14:31.987Z,37.99
2017-07-06T18:17:01.535Z,37.82
2017-07-06T18:19:30.985Z,36.86
2017-07-06T18:22:00.440Z,36.30
2017-07-06T18:24:29.664Z,35.84
2017-07-06T18:26:59.120Z,34.95
2017-07-06T18:29:28.598Z,34.37
2017-07-06T18:31:58.041Z,34.20
2017-07-06T18:34:27.506Z,33.30
2017-07-06T18:36:56.971Z,32.86
2017-07-06T18:39:26.448Z,32.21
2017-07-06T18:41:56.035Z,31.60
2017-07-06T18:44:25.466Z,31.26
2017-07-06T18:46:54.943Z,30.96
2017-07-06T18:49:24.993Z,30.55
2017-07-06T18:51:54.455Z,30.14
2017-07-06T18:54:23.906Z,29.61
2017-07-06T18:56:53.387Z,29.10
2017-07-06T18:59:22.828Z,28.95
2017-07-06T19:01:52.283Z,28.67
2017-07-06T19:04:21.735Z,28.40
2017-07-06T19:06:51.187Z,28.08
2017-07-06T19:09:20.626Z,27.69
2017-07-06T19:11:50.110Z,27.39
2017-07-06T19:14:19.588Z,27.11
2017-07-06T19:16:49.027Z,26.95
2017-07-06T19:19:18.491Z,26.65
2017-07-06T19:21:47.968Z,26.54
2017-07-06T19:24:17.422Z,26.14
2017-07-06T19:26:46.938Z,26.09
2017-07-06T19:29:16.359Z,25.94
2017-07-06T19:31:45.811Z,25.68
2017-07-06T19:34:15.285Z,25.62
2017-07-06T19:36:44.724Z,25.51
2017-07-06T19:39:14.176Z,25.30
2017-07-06T19:41:43.621Z,25.14
2017-07-06T19:44:13.103Z,24.99
2017-07-06T19:46:42.546Z,24.87
2017-07-06T19:49:12.006Z,24.78
2017-07-06T19:51:41.483Z,24.66
2017-07-06T19:54:10.929Z,24.54
2017-07-06T19:56:40.394Z,24.48
2017-07-06T19:59:09.836Z,24.36
2017-07-06T20:01:39.286Z,24.21
2017-07-06T20:04:08.886Z,24.14
2017-07-06T20:06:38.338Z,23.98
2017-07-06T20:09:07.787Z,23.90
2017-07-06T20:11:37.261Z,23.80
2017-07-06T20:14:06.719Z,23.67
2017-07-06T20:16:36.185Z,23.56
2017-07-06T20:19:05.641Z,23.47
2017-07-06T20:21:35.097Z,23.39
2017-07-06T20:24:04.550Z,23.31
2017-07-06T20:26:34.001Z,23.23
2017-07-06T20:29:03.461Z,23.15
2017-07-06T20:31:32.918Z,23.07
2017-07-06T20:34:03.159Z,23.02
2017-07-06T20:36:32.601Z,22.91
2017-07-06T20:39:02.037Z,22.79
2017-07-06T20:41:31.395Z,22.71
2017-07-06T20:44:00.846Z,22.66
2017-07-06T20:46:30.325Z,22.57
2017-07-06T20:48:59.779Z,22.45
2017-07-06T20:51:29.227Z,22.33
2017-07-06T20:53:58.682Z,22.28
2017-07-06T20:56:30.354Z,22.38
2017-07-06T20:59:00.679Z,22.33
2017-07-06T21:01:30.494Z,22.27
2017-07-06T21:04:00.408Z,22.22
2017-07-06T21:06:30.439Z,22.39
2017-07-06T21:09:00.752Z,22.61
2017-07-06T21:11:30.513Z,22.75
2017-07-06T21:14:01.506Z,22.91
2017-07-06T21:16:31.417Z,23.16
2017-07-06T21:19:01.438Z,23.26
2017-07-06T21:21:31.350Z,23.22
2017-07-06T21:24:01.264Z,23.36
2017-07-06T21:26:31.081Z,23.40
2017-07-06T21:29:00.557Z,23.46
2017-07-06T21:31:30.061Z,23.48
2017-07-06T21:33:59.512Z,23.44
2017-07-06T21:36:28.957Z,23.28
2017-07-06T21:38:58.410Z,23.12
2017-07-06T21:41:27.858Z,22.99
2017-07-06T21:43:57.305Z,22.85
2017-07-06T21:46:26.838Z,22.75
2017-07-06T21:48:56.264Z,22.61
2017-07-06T21:51:25.698Z,22.41
2017-07-06T21:53:55.259Z,22.28
2017-07-06T21:56:24.726Z,22.20
2017-07-06T21:58:54.177Z,22.08
2017-07-06T22:01:23.633Z,21.88
2017-07-06T22:03:53.098Z,21.82
2017-07-06T22:06:22.551Z,21.72
2017-07-06T22:08:52.012Z,21.61
2017-07-06T22:11:21.457Z,21.48
2017-07-06T22:13:50.896Z,21.40
2017-07-06T22:16:20.360Z,21.34
2017-07-06T22:18:49.798Z,21.31
2017-07-06T22:21:19.254Z,21.27
2017-07-06T22:23:48.722Z,21.26
2017-07-06T22:26:18.157Z,21.23
2017-07-06T22:28:47.614Z,21.18
2017-07-06T22:31:17.078Z,21.16
2017-07-06T22:33:46.342Z,21.06
2017-07-06T22:36:15.797Z,20.98
2017-07-06T22:38:45.233Z,20.92
2017-07-06T22:41:14.713Z,20.89
2017-07-06T22:43:44.168Z,20.88
2017-07-06T22:46:13.661Z,20.91
2017-07-06T22:48:43.135Z,20.78
2017-07-06T22:51:12.679Z,20.70
2017-07-06T22:53:42.150Z,20.65
2017-07-06T22:56:11.610Z,20.63
2017-07-06T22:58:41.050Z,20.73
2017-07-06T23:01:10.525Z,20.69
2017-07-06T23:03:39.971Z,20.68
2017-07-06T23:06:09.435Z,20.69
2017-07-06T23:08:38.894Z,20.65
2017-07-06T23:11:08.337Z,20.67
2017-07-06T23:13:37.784Z,20.59
2017-07-06T23:16:07.225Z,20.59
2017-07-06T23:18:36.684Z,20.55
2017-07-06T23:21:06.154Z,20.44
2017-07-06T23:23:35.446Z,20.44
2017-07-06T23:26:04.913Z,20.48
2017-07-06T23:28:34.354Z,20.44
2017-07-06T23:31:03.844Z,20.37
2017-07-06T23:33:33.302Z,20.39
2017-07-06T23:36:02.569Z,20.44
2017-07-06T23:38:32.043Z,20.35
2017-07-06T23:41:01.481Z,20.38
2017-07-06T23:43:30.943Z,20.27
2017-07-06T23:46:00.396Z,20.18
2017-07-06T23:48:29.858Z,20.10
2017-07-06T23:50:59.313Z,20.02
2017-07-06T23:53:28.757Z,19.89
2017-07-06T23:55:58.214Z,19.84
2017-07-06T23:58:27.656Z,19.83
